createdAt,value
2022-08-05T00:02:22.114Z,1.30
2022-08-05T00:04:55.854Z,1.20
2022-08-05T00:07:58.970Z,1.42
2022-08-05T00:10:12.710Z,1.52
2022-08-05T00:12:55.834Z,1.20
2022-08-05T00:15:54.947Z,1.25
2022-08-05T00:18:09.647Z,1.50
2022-08-05T00:20:48.783Z,1.33
2022-08-05T00:23:15.519Z,1.50
2022-08-05T00:25:45.862Z,1.10
2022-08-05T00:28:13.242Z,1.40
2022-08-05T00:30:41.107Z,1.50
2022-08-05T00:34:42.342Z,1.25
2022-08-05T00:36:15.977Z,1.30
2022-08-05T00:38:44.310Z,1.30
2022-08-05T00:41:11.821Z,1.10
2022-08-05T00:43:47.030Z,1.20
2022-08-05T00:46:14.144Z,1.40
2022-08-05T00:48:50.632Z,1.20
2022-08-05T00:51:50.279Z,1.33
2022-08-05T00:54:05.815Z,1.38
2022-08-05T00:56:32.354Z,1.35
2022-08-05T00:59:00.343Z,1.50
2022-08-05T01:01:42.666Z,1.40
2022-08-05T01:04:14.075Z,1.05
2022-08-05T01:06:43.863Z,1.30
2022-08-05T01:09:15.184Z,1.30
2022-08-05T01:11:46.233Z,1.20
2022-08-05T01:14:30.546Z,1.20
2022-08-05T01:17:13.800Z,1.25
2022-08-05T01:20:02.149Z,1.50
2022-08-05T01:23:15.434Z,1.27
2022-08-05T01:26:08.590Z,1.38
2022-08-05T01:28:52.242Z,1.20
2022-08-05T01:31:44.787Z,1.40
2022-08-05T01:34:26.811Z,1.48
2022-08-05T01:37:09.562Z,1.20
2022-08-05T01:39:48.025Z,1.30
2022-08-05T01:42:17.390Z,1.10
2022-08-05T01:44:54.479Z,1.23
2022-08-05T01:47:23.021Z,1.40
2022-08-05T01:50:02.138Z,1.10
2022-08-05T01:52:31.655Z,1.10
2022-08-05T01:55:06.761Z,1.10
2022-08-05T01:58:12.867Z,1.30
2022-08-05T02:00:30.037Z,1.45
2022-08-05T02:03:07.420Z,1.30
2022-08-05T02:05:53.647Z,1.25
2022-08-05T02:08:30.822Z,1.23
2022-08-05T02:11:08.308Z,1.00
2022-08-05T02:13:48.677Z,1.40
2022-08-05T02:16:27.556Z,1.30
2022-08-05T02:19:07.122Z,1.17
2022-08-05T02:21:43.544Z,1.50
2022-08-05T02:24:23.056Z,1.20
2022-08-05T02:26:59.174Z,1.40
2022-08-05T02:29:59.009Z,1.20
2022-08-05T02:32:23.869Z,1.33
2022-08-05T02:35:00.580Z,1.05
2022-08-05T02:37:38.454Z,1.20
2022-08-05T02:40:06.558Z,1.55
2022-08-05T02:42:37.370Z,1.23
2022-08-05T02:45:05.082Z,1.20
2022-08-05T02:47:58.747Z,1.38
2022-08-05T02:50:23.396Z,1.20
2022-08-05T02:52:51.855Z,1.27
2022-08-05T02:55:52.207Z,1.50
2022-08-05T02:58:11.487Z,1.20
2022-08-05T03:00:40.510Z,1.23
2022-08-05T03:03:18.100Z,1.10
2022-08-05T03:06:56.159Z,1.20
2022-08-05T03:08:35.872Z,1.38
2022-08-05T03:11:53.400Z,1.13
2022-08-05T03:13:51.965Z,1.27
2022-08-05T03:16:29.546Z,1.13
2022-08-05T03:18:58.056Z,1.50
2022-08-05T03:21:24.599Z,1.27
2022-08-05T03:23:56.876Z,1.40
2022-08-05T03:26:31.316Z,1.25
2022-08-05T03:28:59.329Z,1.35
2022-08-05T03:31:56.626Z,1.30
2022-08-05T03:34:13.109Z,1.20
2022-08-05T03:36:40.739Z,1.35
2022-08-05T03:39:08.302Z,1.25
2022-08-05T03:41:45.350Z,1.20
2022-08-05T03:44:13.653Z,1.27
2022-08-05T03:46:46.862Z,1.38
2022-08-05T03:49:15.182Z,1.15
2022-08-05T03:52:38.944Z,1.20
2022-08-05T03:55:49.854Z,1.33
2022-08-05T03:57:45.524Z,1.30
2022-08-05T04:00:15.502Z,1.48
2022-08-05T04:02:57.708Z,1.33
2022-08-05T04:05:27.980Z,1.15
2022-08-05T04:08:02.464Z,1.38
2022-08-05T04:10:37.168Z,1.20
2022-08-05T04:13:06.325Z,1.10
2022-08-05T04:15:36.218Z,1.50
2022-08-05T04:18:09.822Z,1.40
2022-08-05T04:20:41.082Z,1.17
2022-08-05T04:23:12.207Z,1.30
2022-08-05T04:25:57.780Z,1.20
2022-08-05T04:28:28.545Z,1.10
2022-08-05T04:30:57.751Z,1.35
2022-08-05T04:34:17.593Z,1.10
2022-08-05T04:36:44.640Z,1.20
2022-08-05T04:38:57.709Z,1.25
2022-08-05T04:41:34.139Z,1.30
2022-08-05T04:44:09.223Z,1.40
2022-08-05T04:46:36.702Z,1.30
2022-08-05T04:49:03.253Z,1.02
2022-08-05T04:51:30.490Z,1.10
2022-08-05T04:53:57.398Z,1.48
2022-08-05T04:56:34.436Z,1.33
2022-08-05T04:59:22.073Z,1.20
2022-08-05T05:02:06.898Z,1.40
2022-08-05T05:04:38.156Z,1.27
2022-08-05T05:07:05.246Z,1.23
2022-08-05T05:09:37.414Z,1.30
2022-08-05T05:12:06.311Z,1.30
2022-08-05T05:14:36.322Z,1.50
2022-08-05T05:17:03.754Z,1.20
2022-08-05T05:19:36.839Z,1.30
2022-08-05T05:22:23.549Z,1.33
2022-08-05T05:24:58.577Z,1.17
2022-08-05T05:27:45.716Z,1.50
2022-08-05T05:30:29.247Z,1.30
2022-08-05T05:32:58.414Z,1.60
2022-08-05T05:35:28.976Z,1.60
2022-08-05T05:38:02.150Z,1.55
2022-08-05T05:40:31.452Z,1.77
2022-08-05T05:42:59.272Z,5.25
2022-08-05T05:45:26.399Z,3.42
2022-08-05T05:48:05.428Z,3.58
2022-08-05T05:50:43.888Z,2.33
2022-08-05T05:53:22.541Z,1.90
2022-08-05T05:55:52.126Z,2.40
2022-08-05T05:58:31.865Z,2.10
2022-08-05T06:01:12.732Z,1.70
2022-08-05T06:04:01.431Z,1.80
2022-08-05T06:06:28.014Z,1.45
2022-08-05T06:09:01.186Z,1.80
2022-08-05T06:11:29.801Z,1.90
2022-08-05T06:13:56.783Z,1.70
2022-08-05T06:16:31.006Z,1.65
2022-08-05T06:19:00.824Z,1.70
2022-08-05T06:21:36.910Z,1.50
2022-08-05T06:24:07.811Z,1.80
2022-08-05T06:26:37.893Z,1.70
2022-08-05T06:29:06.475Z,1.50
2022-08-05T06:31:51.951Z,1.50
2022-08-05T06:34:19.924Z,1.38
2022-08-05T06:36:57.123Z,1.40
2022-08-05T06:39:27.373Z,1.30
2022-08-05T06:41:58.826Z,1.40
2022-08-05T06:44:26.084Z,1.50
2022-08-05T06:46:52.775Z,1.30
2022-08-05T06:49:21.128Z,1.55
2022-08-05T06:52:07.684Z,1.40
2022-08-05T06:54:54.207Z,1.23
2022-08-05T06:57:57.202Z,1.25
2022-08-05T07:00:09.725Z,1.30
2022-08-05T07:02:47.006Z,1.25
2022-08-05T07:05:23.471Z,1.20
2022-08-05T07:08:03.776Z,1.27
2022-08-05T07:10:32.412Z,1.10
2022-08-05T07:13:58.570Z,1.08
2022-08-05T07:17:56.010Z,1.30
2022-08-05T07:19:10.945Z,1.20
2022-08-05T07:22:00.778Z,1.20
2022-08-05T07:24:28.558Z,1.05
2022-08-05T07:26:55.406Z,1.00
2022-08-05T07:30:22.390Z,1.10
2022-08-05T07:32:08.552Z,1.10
2022-08-05T07:34:38.137Z,1.00
2022-08-05T07:37:11.607Z,0.90
2022-08-05T07:40:27.111Z,1.00
2022-08-05T07:42:34.074Z,0.98
2022-08-05T07:45:03.342Z,1.10
2022-08-05T07:47:42.259Z,1.20
2022-08-05T07:50:09.787Z,1.00
2022-08-05T07:52:40.561Z,0.80
2022-08-05T07:55:43.954Z,1.00
2022-08-05T07:58:02.457Z,0.70
2022-08-05T08:00:29.802Z,1.02
2022-08-05T08:03:14.246Z,1.20
2022-08-05T08:05:49.447Z,0.88
2022-08-05T08:08:16.837Z,0.88
2022-08-05T08:10:48.755Z,0.95
2022-08-05T08:13:21.756Z,0.70
2022-08-05T08:16:34.834Z,0.90
2022-08-05T08:18:42.199Z,0.90
2022-08-05T08:21:17.715Z,0.90
2022-08-05T08:24:02.399Z,0.77
2022-08-05T08:26:31.072Z,0.73
2022-08-05T08:29:45.175Z,0.68
2022-08-05T08:31:49.442Z,0.93
2022-08-05T08:34:30.248Z,0.80
2022-08-05T08:37:03.353Z,0.70
2022-08-05T08:39:31.538Z,0.50
2022-08-05T08:42:09.024Z,0.70
2022-08-05T08:44:54.971Z,0.73
2022-08-05T08:48:06.382Z,0.50
2022-08-05T08:51:04.127Z,0.70
2022-08-05T08:53:21.223Z,0.50
2022-08-05T08:56:03.979Z,0.63
2022-08-05T08:58:37.445Z,0.60
2022-08-05T09:01:15.951Z,0.47
2022-08-05T09:03:55.332Z,0.80
2022-08-05T09:06:29.539Z,0.60
2022-08-05T09:08:59.530Z,0.45
2022-08-05T09:11:51.111Z,0.60
2022-08-05T09:14:58.932Z,0.60
2022-08-05T09:17:05.418Z,0.50
2022-08-05T09:20:01.981Z,0.60
2022-08-05T09:22:31.004Z,0.80
2022-08-05T09:25:13.765Z,0.70
2022-08-05T09:28:05.625Z,0.50
2022-08-05T09:30:34.206Z,0.60
2022-08-05T09:33:04.741Z,0.60
2022-08-05T09:35:31.731Z,0.60
2022-08-05T09:38:16.439Z,0.57
2022-08-05T09:40:52.327Z,0.63
2022-08-05T09:43:27.678Z,0.60
2022-08-05T09:46:51.659Z,0.75
2022-08-05T09:49:57.087Z,0.60
2022-08-05T09:52:34.118Z,0.65
2022-08-05T09:55:57.872Z,0.68
2022-08-05T09:57:54.569Z,0.60
2022-08-05T10:00:26.439Z,0.60
2022-08-05T10:02:58.677Z,0.70
2022-08-05T10:05:28.225Z,0.50
2022-08-05T10:08:35.353Z,0.50
2022-08-05T10:10:50.348Z,0.70
2022-08-05T10:13:45.676Z,0.60
2022-08-05T10:16:41.572Z,0.57
2022-08-05T10:19:19.130Z,0.50
2022-08-05T10:21:51.093Z,0.50
2022-08-05T10:24:21.458Z,0.80
2022-08-05T10:26:56.274Z,0.50
2022-08-05T10:30:06.928Z,0.60
2022-08-05T10:32:52.444Z,0.65
2022-08-05T10:35:03.236Z,0.60
2022-08-05T10:37:40.297Z,0.60
2022-08-05T10:40:34.970Z,0.60
2022-08-05T10:43:24.353Z,0.50
2022-08-05T10:46:06.370Z,0.73
2022-08-05T10:48:39.624Z,0.70
2022-08-05T10:51:22.394Z,0.60
2022-08-05T10:53:58.458Z,0.90
2022-08-05T10:56:29.395Z,1.08
2022-08-05T10:59:12.818Z,0.95
2022-08-05T11:01:54.289Z,0.73
2022-08-05T11:04:23.309Z,0.85
2022-08-05T11:07:00.583Z,0.60
2022-08-05T11:10:03.942Z,0.80
2022-08-05T11:12:50.874Z,0.60
2022-08-05T11:16:00.192Z,0.60
2022-08-05T11:18:29.944Z,0.68
2022-08-05T11:20:59.569Z,0.70
2022-08-05T11:24:04.386Z,0.70
2022-08-05T11:26:29.267Z,0.65
2022-08-05T11:29:12.123Z,0.68
2022-08-05T11:31:56.778Z,0.68
2022-08-05T11:34:51.846Z,0.60
2022-08-05T11:38:36.626Z,0.75
2022-08-05T11:41:03.367Z,0.60
2022-08-05T11:44:08.342Z,0.70
2022-08-05T11:47:09.563Z,0.60
2022-08-05T11:49:27.921Z,0.52
2022-08-05T11:51:54.707Z,0.60
2022-08-05T11:54:33.308Z,0.60
2022-08-05T11:57:02.237Z,0.60
2022-08-05T11:59:49.743Z,0.60
2022-08-05T12:02:30.272Z,0.70
2022-08-05T12:05:06.995Z,0.60
2022-08-05T12:08:03.195Z,0.73
2022-08-05T12:10:43.469Z,0.60
2022-08-05T12:13:17.094Z,0.60
2022-08-05T12:15:50.119Z,0.60
2022-08-05T12:18:32.633Z,0.70
2022-08-05T12:21:29.962Z,0.63
2022-08-05T12:24:12.068Z,0.80
2022-08-05T12:26:39.637Z,0.70
2022-08-05T12:29:16.241Z,0.60
2022-08-05T12:31:58.552Z,0.50
2022-08-05T12:34:33.955Z,0.50
2022-08-05T12:37:10.740Z,0.50
2022-08-05T12:39:39.661Z,0.60
2022-08-05T12:42:15.928Z,0.70
2022-08-05T12:44:44.686Z,0.57
2022-08-05T12:47:12.882Z,0.60
2022-08-05T12:50:04.430Z,0.60
2022-08-05T12:52:39.467Z,0.80
2022-08-05T12:55:25.589Z,0.52
2022-08-05T12:58:50.869Z,0.70
2022-08-05T13:02:02.596Z,0.60
2022-08-05T13:03:41.460Z,0.70
2022-08-05T13:06:11.683Z,0.80
2022-08-05T13:08:38.802Z,0.68
2022-08-05T13:11:07.851Z,0.60
2022-08-05T13:14:04.667Z,0.77
2022-08-05T13:16:27.807Z,0.90
2022-08-05T13:18:58.602Z,0.80
2022-08-05T13:21:28.141Z,0.75
2022-08-05T13:24:04.639Z,0.80
2022-08-05T13:26:31.185Z,0.77
2022-08-05T13:28:58.984Z,0.50
2022-08-05T13:32:02.821Z,0.70
2022-08-05T13:34:24.676Z,0.60
2022-08-05T13:36:53.758Z,0.60
2022-08-05T13:40:13.016Z,0.50
2022-08-05T13:42:07.638Z,0.60
2022-08-05T13:44:45.447Z,0.57
2022-08-05T13:47:34.786Z,0.60
2022-08-05T13:50:04.133Z,0.80
2022-08-05T13:52:31.723Z,0.65
2022-08-05T13:55:07.408Z,0.70
2022-08-05T13:57:48.708Z,0.60
2022-08-05T14:00:18.440Z,0.80
2022-08-05T14:02:53.955Z,0.65
2022-08-05T14:05:48.154Z,0.57
2022-08-05T14:08:20.222Z,0.70
2022-08-05T14:10:53.821Z,0.45
2022-08-05T14:13:30.027Z,0.80
2022-08-05T14:16:05.438Z,0.90
2022-08-05T14:18:35.973Z,0.60
2022-08-05T14:22:08.588Z,0.70
2022-08-05T14:23:51.237Z,0.60
2022-08-05T14:26:38.476Z,0.70
2022-08-05T14:29:05.244Z,0.60
2022-08-05T14:32:02.600Z,0.60
2022-08-05T14:34:29.532Z,0.70
2022-08-05T14:37:02.272Z,0.52
2022-08-05T14:39:29.370Z,0.80
2022-08-05T14:42:19.085Z,0.70
2022-08-05T14:44:42.487Z,0.88
2022-08-05T14:47:09.509Z,0.70
2022-08-05T14:49:58.869Z,0.70
2022-08-05T14:52:50.462Z,0.70
2022-08-05T14:55:09.461Z,1.05
2022-08-05T14:57:56.107Z,1.00
2022-08-05T15:00:28.014Z,0.75
2022-08-05T15:02:56.255Z,1.23
2022-08-05T15:05:30.225Z,0.80
2022-08-05T15:08:17.001Z,0.70
2022-08-05T15:10:56.406Z,0.90
2022-08-05T15:13:24.341Z,0.63
2022-08-05T15:16:10.966Z,1.35
2022-08-05T15:18:39.787Z,1.83
2022-08-05T15:21:08.658Z,1.20
2022-08-05T15:23:35.355Z,1.20
2022-08-05T15:26:04.675Z,1.15
2022-08-05T15:28:31.213Z,0.82
2022-08-05T15:30:57.844Z,1.10
2022-08-05T15:34:04.588Z,0.82
2022-08-05T15:36:17.605Z,0.93
2022-08-05T15:40:58.965Z,1.10
2022-08-05T15:41:56.108Z,1.85
2022-08-05T15:44:24.714Z,1.38
2022-08-05T15:46:52.682Z,1.50
2022-08-05T15:49:27.380Z,1.30
2022-08-05T15:52:16.429Z,1.65
2022-08-05T15:54:53.003Z,1.45
2022-08-05T15:57:20.700Z,1.48
2022-08-05T15:59:47.219Z,1.30
2022-08-05T16:02:19.576Z,1.40
2022-08-05T16:04:52.819Z,1.05
2022-08-05T16:07:21.396Z,1.05
2022-08-05T16:09:49.857Z,1.02
2022-08-05T16:12:16.919Z,0.90
2022-08-05T16:14:46.492Z,1.20
2022-08-05T16:17:13.468Z,1.10
2022-08-05T16:20:04.904Z,1.48
2022-08-05T16:22:27.755Z,1.17
2022-08-05T16:25:08.029Z,1.35
2022-08-05T16:28:01.040Z,1.00
2022-08-05T16:30:26.650Z,1.10
2022-08-05T16:32:55.621Z,1.38
2022-08-05T16:35:28.279Z,1.50
2022-08-05T16:38:16.264Z,1.10
2022-08-05T16:40:51.814Z,1.52
2022-08-05T16:43:23.746Z,1.23
2022-08-05T16:46:06.137Z,1.15
2022-08-05T16:48:39.007Z,1.25
2022-08-05T16:51:09.913Z,0.90
2022-08-05T16:54:06.269Z,0.93
2022-08-05T16:56:29.167Z,1.00
2022-08-05T16:58:57.068Z,1.20
2022-08-05T17:01:24.348Z,1.02
2022-08-05T17:03:52.007Z,0.80
2022-08-05T17:06:19.355Z,1.23
2022-08-05T17:08:52.688Z,1.40
2022-08-05T17:11:20.484Z,1.77
2022-08-05T17:13:50.689Z,1.80
2022-08-05T17:16:32.480Z,2.58
2022-08-05T17:19:00.079Z,2.10
2022-08-05T17:21:35.521Z,1.52
2022-08-05T17:24:28.461Z,1.63
2022-08-05T17:26:59.171Z,3.05
2022-08-05T17:29:39.926Z,2.15
2022-08-05T17:32:17.186Z,1.90
2022-08-05T17:34:47.782Z,2.15
2022-08-05T17:37:40.002Z,2.45
2022-08-05T17:40:02.141Z,2.50
2022-08-05T17:42:29.952Z,2.10
2022-08-05T17:44:59.916Z,1.30
2022-08-05T17:47:26.928Z,1.90
2022-08-05T17:50:03.907Z,2.28
2022-08-05T17:52:52.882Z,2.22
2022-08-05T17:55:22.169Z,2.05
2022-08-05T17:57:50.258Z,1.92
2022-08-05T18:00:17.445Z,1.80
2022-08-05T18:02:46.747Z,2.20
2022-08-05T18:05:13.756Z,1.70
2022-08-05T18:07:44.564Z,2.00
2022-08-05T18:10:20.583Z,1.80
2022-08-05T18:12:48.633Z,1.77
2022-08-05T18:15:15.264Z,1.55
2022-08-05T18:18:00.596Z,1.77
2022-08-05T18:20:31.587Z,1.90
2022-08-05T18:23:11.455Z,1.80
2022-08-05T18:25:44.875Z,1.65
2022-08-05T18:28:12.816Z,1.63
2022-08-05T18:30:50.936Z,2.00
2022-08-05T18:33:23.178Z,1.80
2022-08-05T18:36:03.821Z,1.60
2022-08-05T18:38:34.440Z,1.70
2022-08-05T18:41:56.358Z,1.38
2022-08-05T18:43:49.446Z,1.40
2022-08-05T18:46:19.474Z,1.80
2022-08-05T18:48:48.217Z,1.75
2022-08-05T18:52:05.066Z,1.70
2022-08-05T18:54:28.585Z,1.70
2022-08-05T18:57:01.494Z,1.50
2022-08-05T18:59:50.619Z,1.80
2022-08-05T19:02:28.255Z,1.42
2022-08-05T19:05:02.337Z,1.50
2022-08-05T19:07:50.228Z,1.60
2022-08-05T19:10:28.252Z,1.33
2022-08-05T19:12:56.039Z,1.65
2022-08-05T19:15:58.014Z,1.73
2022-08-05T19:18:13.675Z,1.27
2022-08-05T19:20:51.602Z,1.60
2022-08-05T19:24:03.502Z,1.40
2022-08-05T19:26:05.170Z,1.60
2022-08-05T19:28:38.016Z,1.40
2022-08-05T19:31:08.313Z,1.58
2022-08-05T19:33:36.779Z,1.20
2022-08-05T19:36:07.214Z,1.23
2022-08-05T19:38:36.285Z,1.60
2022-08-05T19:41:07.022Z,1.20
2022-08-05T19:44:05.476Z,1.25
2022-08-05T19:46:29.803Z,1.52
2022-08-05T19:49:02.892Z,1.50
2022-08-05T19:52:04.588Z,1.33
2022-08-05T19:54:26.706Z,1.52
2022-08-05T19:56:59.842Z,1.45
2022-08-05T20:01:03.289Z,1.30
2022-08-05T20:03:40.841Z,1.50
2022-08-05T20:06:11.791Z,1.52
2022-08-05T20:08:44.152Z,1.45
2022-08-05T20:11:14.309Z,1.30
2022-08-05T20:13:58.980Z,1.33
2022-08-05T20:16:31.571Z,1.30
2022-08-05T20:18:59.565Z,1.20
2022-08-05T20:21:28.749Z,1.60
2022-08-05T20:23:58.071Z,1.23
2022-08-05T20:26:25.623Z,1.02
2022-08-05T20:28:56.139Z,1.20
2022-08-05T20:31:37.313Z,1.17
2022-08-05T20:34:10.162Z,1.00
2022-08-05T20:36:36.712Z,1.20
2022-08-05T20:39:05.835Z,1.20
2022-08-05T20:41:44.211Z,1.17
2022-08-05T20:44:17.662Z,1.20
2022-08-05T20:46:46.399Z,1.15
2022-08-05T20:49:13.957Z,1.40
2022-08-05T20:51:40.625Z,1.40
2022-08-05T20:54:07.163Z,1.08
2022-08-05T20:56:42.467Z,1.38
2022-08-05T20:59:14.052Z,1.35
2022-08-05T21:01:46.346Z,1.30
2022-08-05T21:04:13.732Z,1.20
2022-08-05T21:06:45.887Z,1.30
2022-08-05T21:09:14.780Z,1.05
2022-08-05T21:12:07.338Z,1.20
2022-08-05T21:14:29.456Z,1.40
2022-08-05T21:17:01.648Z,1.00
2022-08-05T21:19:29.724Z,1.23
2022-08-05T21:22:14.461Z,1.40
2022-08-05T21:24:41.082Z,1.00
2022-08-05T21:27:09.182Z,1.50
2022-08-05T21:29:40.639Z,1.20
2022-08-05T21:32:07.624Z,1.10
2022-08-05T21:34:35.648Z,1.17
2022-08-05T21:37:02.468Z,1.20
2022-08-05T21:39:29.346Z,1.13
2022-08-05T21:42:01.626Z,1.40
2022-08-05T21:44:32.063Z,1.30
2022-08-05T21:46:59.397Z,1.33
2022-08-05T21:49:56.861Z,1.20
2022-08-05T21:52:22.133Z,1.20
2022-08-05T21:54:55.320Z,0.85
2022-08-05T21:57:31.683Z,1.45
2022-08-05T22:00:10.787Z,1.17
2022-08-05T22:02:38.085Z,0.93
2022-08-05T22:05:04.934Z,0.98
2022-08-05T22:07:40.171Z,1.45
2022-08-05T22:10:26.898Z,1.10
2022-08-05T22:12:57.402Z,1.20
2022-08-05T22:16:02.382Z,1.10
2022-08-05T22:18:11.271Z,1.33
2022-08-05T22:20:39.008Z,1.08
2022-08-05T22:23:25.368Z,1.33
2022-08-05T22:26:30.801Z,1.20
2022-08-05T22:28:57.380Z,0.90
2022-08-05T22:31:24.835Z,1.00
2022-08-05T22:34:01.179Z,0.90
2022-08-05T22:36:28.342Z,1.20
2022-08-05T22:38:56.263Z,1.00
2022-08-05T22:42:04.144Z,1.00
2022-08-05T22:44:10.118Z,1.25
2022-08-05T22:46:39.923Z,1.05
2022-08-05T22:49:23.285Z,0.90
2022-08-05T22:52:05.106Z,1.33
2022-08-05T22:54:33.513Z,1.00
2022-08-05T22:57:00.121Z,1.38
2022-08-05T22:59:48.265Z,1.00
2022-08-05T23:02:13.711Z,1.00
2022-08-05T23:04:51.665Z,1.10
2022-08-05T23:07:22.024Z,1.48
2022-08-05T23:09:58.141Z,1.02
2022-08-05T23:12:32.490Z,1.02
2022-08-05T23:14:59.849Z,1.00
2022-08-05T23:17:34.092Z,1.20
2022-08-05T23:20:16.337Z,0.95
2022-08-05T23:22:44.128Z,1.10
2022-08-05T23:25:17.121Z,1.10
2022-08-05T23:28:01.114Z,0.98
2022-08-05T23:30:29.254Z,0.95
2022-08-05T23:32:57.936Z,1.00
2022-08-05T23:35:28.606Z,1.02
2022-08-05T23:38:01.217Z,1.10
2022-08-05T23:40:27.840Z,0.80
2022-08-05T23:42:54.429Z,0.98
2022-08-05T23:45:21.106Z,1.15
2022-08-05T23:47:53.616Z,1.00
2022-08-05T23:50:25.982Z,1.00
2022-08-05T23:52:55.333Z,1.00
2022-08-05T23:55:22.472Z,0.93
2022-08-05T23:57:57.451Z,1.10
